Terminal Aerodrome Forecast
Issued by NWS Kansas City/Pleasant Hill, MO

Home | Current Version | Previous Version | Text Only | Print | Product List | Glossary On
Versions: 1 2 3 4 5 6 7 8 9 10 11 12 13 14 15 16
000
FTUS43 KEAX 051100
TAFMCI
TAF
KMCI 051124Z 0512/0612 14007KT 6SM HZ SCT250
      TEMPO 0512/0514 5SM HZ
     FM051400 17014KT P6SM SCT040
     FM052300 17009KT P6SM FEW040=

USA.gov is the U.S. government's official web portal to all federal, state and local government web resources and services.